createdAt,value
2023-08-25T00:01:01.259Z,0.10
2023-08-25T00:03:31.122Z,0.20
2023-08-25T00:06:00.466Z,0.20
2023-08-25T00:08:31.973Z,0.10
2023-08-25T00:11:01.565Z,0.10
2023-08-25T00:13:31.081Z,0.13
2023-08-25T00:16:00.757Z,0.10
2023-08-25T00:18:30.240Z,0.10
2023-08-25T00:20:59.705Z,0.10
2023-08-25T00:23:29.133Z,0.15
2023-08-25T00:25:58.963Z,0.10
2023-08-25T00:28:28.411Z,0.10
2023-08-25T00:30:57.901Z,0.17
2023-08-25T00:33:27.261Z,0.10
2023-08-25T00:35:56.667Z,0.10
2023-08-25T00:38:29.568Z,0.10
2023-08-25T00:43:34.638Z,0.10
2023-08-25T00:46:04.139Z,0.10
2023-08-25T00:48:34.608Z,0.20
2023-08-25T00:51:06.373Z,0.10
2023-08-25T00:53:37.142Z,0.17
2023-08-25T00:56:06.734Z,0.20
2023-08-25T00:58:37.465Z,0.20
2023-08-25T01:01:08.046Z,0.17
2023-08-25T01:03:40.017Z,0.20
2023-08-25T01:06:12.909Z,0.13
2023-08-25T01:08:42.501Z,0.17
2023-08-25T01:11:52.774Z,0.10
2023-08-25T01:14:54.832Z,0.20
2023-08-25T01:17:36.692Z,0.20
2023-08-25T01:20:09.661Z,0.20
2023-08-25T01:23:10.752Z,0.10
2023-08-25T01:25:41.456Z,0.10
2023-08-25T01:28:11.084Z,0.10
2023-08-25T01:30:40.709Z,0.20
2023-08-25T01:33:10.135Z,0.20
2023-08-25T01:36:03.558Z,0.20
2023-08-25T01:38:44.568Z,0.20
2023-08-25T01:41:23.509Z,0.20
2023-08-25T01:43:55.872Z,0.10
2023-08-25T01:46:25.734Z,0.10
2023-08-25T01:48:59.655Z,0.10
2023-08-25T01:51:30.604Z,0.17
2023-08-25T01:54:01.184Z,0.20
2023-08-25T01:56:31.822Z,0.10
2023-08-25T01:59:03.386Z,0.15
2023-08-25T02:01:33.218Z,0.17
2023-08-25T02:04:02.613Z,0.20
2023-08-25T02:06:34.197Z,0.10
2023-08-25T02:09:04.329Z,0.10
2023-08-25T02:11:33.734Z,0.20
2023-08-25T02:14:03.070Z,0.10
2023-08-25T02:16:32.994Z,0.20
2023-08-25T02:19:03.699Z,0.10
2023-08-25T02:21:33.055Z,0.20
2023-08-25T02:24:02.962Z,0.10
2023-08-25T02:26:32.637Z,0.15
2023-08-25T02:29:02.016Z,0.20
2023-08-25T02:31:31.407Z,0.13
2023-08-25T02:34:00.800Z,0.20
2023-08-25T02:36:30.249Z,0.20
2023-08-25T02:38:59.633Z,0.20
2023-08-25T02:41:29.021Z,0.20
2023-08-25T02:43:58.303Z,0.20
2023-08-25T02:46:27.594Z,0.20
2023-08-25T02:48:58.146Z,0.15
2023-08-25T02:51:27.524Z,0.20
2023-08-25T02:53:56.891Z,0.20
2023-08-25T02:56:26.310Z,0.20
2023-08-25T02:58:55.589Z,0.20
2023-08-25T03:01:25.247Z,0.20
2023-08-25T03:03:56.880Z,0.20
2023-08-25T03:06:26.339Z,0.20
2023-08-25T03:08:55.788Z,0.20
2023-08-25T03:11:25.146Z,0.20
2023-08-25T03:13:54.524Z,0.20
2023-08-25T03:16:24.319Z,0.10
2023-08-25T03:18:53.729Z,0.20
2023-08-25T03:21:24.686Z,0.10
2023-08-25T03:23:54.122Z,0.20
2023-08-25T03:26:23.718Z,0.20
2023-08-25T03:28:53.651Z,0.20
2023-08-25T03:31:23.053Z,0.13
2023-08-25T03:33:52.529Z,0.10
2023-08-25T03:36:21.908Z,0.13
2023-08-25T03:38:51.388Z,0.10
2023-08-25T03:41:20.765Z,0.10
2023-08-25T03:43:50.573Z,0.10
2023-08-25T03:46:20.024Z,0.10
2023-08-25T03:48:49.522Z,0.10
2023-08-25T03:51:18.987Z,0.13
2023-08-25T03:53:48.397Z,0.10
2023-08-25T03:56:17.786Z,0.10
2023-08-25T03:58:47.266Z,0.10
2023-08-25T04:01:16.652Z,0.10
2023-08-25T04:03:48.563Z,0.10
2023-08-25T04:06:18.229Z,0.10
2023-08-25T04:08:47.539Z,0.10
2023-08-25T04:11:16.788Z,0.10
2023-08-25T04:13:48.398Z,0.10
2023-08-25T04:16:17.996Z,0.10
2023-08-25T04:18:49.073Z,0.10
2023-08-25T04:21:18.478Z,0.10
2023-08-25T04:23:47.829Z,0.10
2023-08-25T04:26:17.172Z,0.10
2023-08-25T04:28:46.476Z,0.10
2023-08-25T04:31:15.898Z,0.10
2023-08-25T04:33:50.910Z,0.10
2023-08-25T04:36:20.289Z,0.10
2023-08-25T04:38:49.629Z,0.10
2023-08-25T04:41:21.207Z,0.10
2023-08-25T04:43:50.695Z,0.10
2023-08-25T04:46:20.100Z,0.10
2023-08-25T04:48:49.604Z,0.10
2023-08-25T04:51:19.269Z,0.10
2023-08-25T04:53:48.826Z,0.10
2023-08-25T04:56:20.741Z,0.10
2023-08-25T04:58:50.369Z,0.10
2023-08-25T05:01:20.004Z,0.10
2023-08-25T05:03:50.043Z,0.10
2023-08-25T05:06:20.561Z,0.05
2023-08-25T05:08:50.057Z,0.10
2023-08-25T05:11:19.915Z,0.10
2023-08-25T05:13:49.474Z,0.10
2023-08-25T05:16:20.687Z,0.10
2023-08-25T05:19:04.053Z,0.10
2023-08-25T05:21:36.264Z,0.10
2023-08-25T05:24:26.894Z,0.10
2023-08-25T05:26:57.872Z,0.10
2023-08-25T05:29:32.474Z,0.10
2023-08-25T05:32:05.755Z,0.10
2023-08-25T05:34:47.327Z,0.10
2023-08-25T05:40:38.709Z,0.10
2023-08-25T05:43:10.949Z,0.00
2023-08-25T05:50:49.743Z,0.03
2023-08-25T05:53:27.731Z,0.00
2023-08-25T05:55:59.921Z,0.10
2023-08-25T05:58:29.811Z,0.00
2023-08-25T06:01:00.251Z,0.10
2023-08-25T06:03:30.254Z,0.00
2023-08-25T06:05:59.816Z,0.00
2023-08-25T06:08:29.318Z,0.00
2023-08-25T06:11:01.235Z,0.00
2023-08-25T06:13:31.800Z,0.00
2023-08-25T06:16:01.498Z,0.00
2023-08-25T06:18:33.517Z,0.00
2023-08-25T06:21:16.825Z,0.00
2023-08-25T06:23:49.376Z,0.00
2023-08-25T06:27:08.999Z,0.00
2023-08-25T06:30:04.797Z,0.00
2023-08-25T06:32:34.442Z,0.00
2023-08-25T06:35:12.614Z,0.00
2023-08-25T06:37:42.423Z,0.00
2023-08-25T06:40:12.469Z,0.00
2023-08-25T06:42:42.017Z,0.00
2023-08-25T06:45:12.721Z,0.00
2023-08-25T06:47:42.343Z,0.00
2023-08-25T06:50:14.293Z,0.00
2023-08-25T06:52:43.679Z,0.00
2023-08-25T06:55:13.246Z,0.00
2023-08-25T06:57:42.665Z,0.00
2023-08-25T07:00:13.796Z,0.00
2023-08-25T07:02:44.494Z,0.00
2023-08-25T07:05:14.696Z,0.00
2023-08-25T07:07:44.563Z,0.00
2023-08-25T07:10:14.395Z,0.00
2023-08-25T07:12:44.229Z,0.00
2023-08-25T07:15:14.305Z,0.00
2023-08-25T07:17:45.002Z,0.00
2023-08-25T07:20:14.901Z,0.00
2023-08-25T07:22:46.762Z,0.00
2023-08-25T07:25:16.321Z,0.00
2023-08-25T07:27:45.733Z,0.00
2023-08-25T07:30:22.739Z,0.00
2023-08-25T07:32:55.238Z,0.00
2023-08-25T07:35:27.981Z,0.00
2023-08-25T07:38:01.046Z,0.00
2023-08-25T07:40:33.261Z,0.00
2023-08-25T07:43:15.494Z,0.00
2023-08-25T07:45:49.482Z,0.00
2023-08-25T07:52:01.349Z,0.00
2023-08-25T07:54:40.622Z,0.00
2023-08-25T07:57:13.103Z,0.00
2023-08-25T07:59:49.751Z,0.00
2023-08-25T08:02:19.369Z,0.00
2023-08-25T08:04:48.725Z,0.00
2023-08-25T08:10:36.690Z,0.00
2023-08-25T08:13:10.629Z,0.00
2023-08-25T08:15:46.508Z,0.00
2023-08-25T08:22:04.935Z,0.00
2023-08-25T08:25:43.378Z,0.00
2023-08-25T08:28:24.290Z,0.00
2023-08-25T08:30:54.142Z,0.00
2023-08-25T08:33:23.949Z,0.00
2023-08-25T08:35:54.028Z,0.00
2023-08-25T08:38:24.098Z,0.00
2023-08-25T08:41:01.270Z,0.00
2023-08-25T08:43:39.746Z,0.00
2023-08-25T08:46:11.566Z,0.00
2023-08-25T08:52:02.730Z,0.00
2023-08-25T08:54:34.733Z,0.00
2023-08-25T08:57:05.586Z,0.00
2023-08-25T08:59:38.714Z,0.00
2023-08-25T09:02:14.720Z,0.00
2023-08-25T09:04:47.465Z,0.00
2023-08-25T09:07:20.095Z,0.00
2023-08-25T09:10:18.026Z,0.00
2023-08-25T09:12:59.457Z,0.00
2023-08-25T09:15:35.490Z,0.00
2023-08-25T09:22:24.108Z,0.00
2023-08-25T09:24:59.414Z,0.00
2023-08-25T09:27:28.932Z,0.00
2023-08-25T09:30:08.367Z,0.00
2023-08-25T09:32:38.775Z,0.00
2023-08-25T09:35:16.663Z,0.00
2023-08-25T09:37:46.568Z,0.00
2023-08-25T09:40:16.375Z,0.00
2023-08-25T09:42:46.729Z,0.00
2023-08-25T09:45:16.777Z,0.00
2023-08-25T09:47:46.164Z,0.00
2023-08-25T09:50:17.057Z,0.00
2023-08-25T09:52:49.927Z,0.00
2023-08-25T09:55:21.158Z,0.00
2023-08-25T09:57:52.829Z,0.00
2023-08-25T10:00:22.842Z,0.00
2023-08-25T10:02:52.969Z,0.00
2023-08-25T10:05:23.173Z,0.00
2023-08-25T10:07:54.050Z,0.00
2023-08-25T10:10:26.578Z,0.00
2023-08-25T10:12:59.249Z,0.00
2023-08-25T10:15:31.868Z,0.00
2023-08-25T10:18:04.457Z,0.00
2023-08-25T10:20:38.638Z,0.00
2023-08-25T10:23:10.060Z,0.00
2023-08-25T10:25:39.800Z,0.00
2023-08-25T10:28:10.712Z,0.00
2023-08-25T10:30:40.644Z,0.00
2023-08-25T10:33:11.928Z,0.00
2023-08-25T10:35:44.779Z,0.00
2023-08-25T10:38:20.583Z,0.00
2023-08-25T10:40:55.679Z,0.00
2023-08-25T10:43:33.657Z,0.00
2023-08-25T10:46:10.657Z,0.00
2023-08-25T10:48:41.999Z,0.00
2023-08-25T10:51:22.135Z,0.00
2023-08-25T10:53:53.807Z,0.00
2023-08-25T10:56:25.355Z,0.00
2023-08-25T10:59:05.912Z,0.00
2023-08-25T11:01:56.190Z,0.00
2023-08-25T11:04:31.125Z,0.00
2023-08-25T11:07:01.233Z,0.00
2023-08-25T11:09:39.246Z,0.00
2023-08-25T11:12:10.253Z,0.00
2023-08-25T11:14:43.786Z,0.00
2023-08-25T11:17:13.414Z,0.00
2023-08-25T11:19:44.010Z,0.00
2023-08-25T11:22:13.676Z,0.00
2023-08-25T11:24:45.476Z,0.00
2023-08-25T11:27:17.482Z,0.00
2023-08-25T11:29:47.037Z,0.00
2023-08-25T11:32:17.360Z,0.00
2023-08-25T11:34:50.269Z,0.00
2023-08-25T11:37:19.717Z,0.00
2023-08-25T11:39:49.106Z,0.00
2023-08-25T11:42:24.062Z,0.00
2023-08-25T11:44:54.403Z,0.00
2023-08-25T11:47:24.140Z,0.00
2023-08-25T11:49:55.331Z,0.00
2023-08-25T11:52:24.931Z,0.00
2023-08-25T11:54:54.432Z,0.00
2023-08-25T11:57:35.168Z,0.00
2023-08-25T12:00:07.326Z,0.00
2023-08-25T12:02:37.434Z,0.00
2023-08-25T12:05:07.042Z,0.00
2023-08-25T12:07:38.481Z,0.00
2023-08-25T12:10:08.607Z,0.00
2023-08-25T12:12:40.755Z,0.00
2023-08-25T12:15:10.835Z,0.00
2023-08-25T12:17:41.350Z,0.00
2023-08-25T12:20:16.814Z,0.00
2023-08-25T12:23:01.955Z,0.00
2023-08-25T12:25:32.776Z,0.00
2023-08-25T12:28:02.428Z,0.00
2023-08-25T12:30:31.786Z,0.00
2023-08-25T12:33:01.132Z,0.00
2023-08-25T12:35:30.581Z,0.00
2023-08-25T12:37:59.923Z,0.00
2023-08-25T12:40:29.699Z,0.00
2023-08-25T12:42:59.100Z,0.00
2023-08-25T12:45:28.396Z,0.00
2023-08-25T12:47:58.261Z,0.00
2023-08-25T12:50:30.584Z,0.00
2023-08-25T12:53:00.245Z,0.00
2023-08-25T12:55:30.212Z,0.00
2023-08-25T12:58:00.951Z,0.00
2023-08-25T13:00:30.421Z,0.10
2023-08-25T13:03:02.124Z,0.10
2023-08-25T13:05:31.973Z,0.03
2023-08-25T13:08:01.466Z,0.00
2023-08-25T13:10:30.998Z,0.00
2023-08-25T13:13:01.741Z,0.00
2023-08-25T13:15:32.888Z,0.00
2023-08-25T13:18:04.399Z,0.00
2023-08-25T13:20:33.794Z,0.00
2023-08-25T13:23:03.329Z,0.00
2023-08-25T13:25:33.491Z,0.00
2023-08-25T13:28:03.309Z,0.00
2023-08-25T13:30:38.661Z,0.00
2023-08-25T13:33:08.685Z,0.00
2023-08-25T13:35:41.143Z,0.00
2023-08-25T13:38:11.697Z,0.00
2023-08-25T13:40:42.058Z,0.00
2023-08-25T13:43:14.106Z,0.00
2023-08-25T13:45:49.170Z,0.00
2023-08-25T13:48:19.696Z,0.00
2023-08-25T13:50:52.213Z,0.00
2023-08-25T13:53:21.650Z,0.00
2023-08-25T13:55:52.109Z,0.00
2023-08-25T13:58:22.253Z,0.03
2023-08-25T14:00:51.623Z,0.00
2023-08-25T14:03:21.051Z,0.05
2023-08-25T14:06:03.163Z,0.00
2023-08-25T14:08:46.915Z,0.00
2023-08-25T14:11:17.440Z,0.00
2023-08-25T14:13:50.362Z,0.00
2023-08-25T14:16:21.592Z,0.00
2023-08-25T14:18:52.101Z,0.00
2023-08-25T14:21:22.491Z,0.00
